createdAt,value
2022-12-29T00:01:13.800Z,99.07
2022-12-29T00:03:42.193Z,99.58
2022-12-29T00:06:10.832Z,99.38
2022-12-29T00:08:43.236Z,99.27
2022-12-29T00:11:14.497Z,99.19
2022-12-29T00:14:00.835Z,99.23
2022-12-29T00:16:29.950Z,99.42
2022-12-29T00:18:58.547Z,99.15
2022-12-29T00:21:45.429Z,98.83
2022-12-29T00:24:36.454Z,99.32
2022-12-29T00:27:31.999Z,99.13
2022-12-29T00:30:18.290Z,99.48
2022-12-29T00:33:03.873Z,99.36
2022-12-29T00:35:36.217Z,99.01
2022-12-29T00:38:25.775Z,99.31
2022-12-29T00:41:12.600Z,99.17
2022-12-29T00:43:58.409Z,99.30
2022-12-29T00:46:26.777Z,99.59
2022-12-29T00:49:12.462Z,99.51
2022-12-29T00:51:40.807Z,99.54
2022-12-29T00:54:09.240Z,99.71
2022-12-29T00:56:38.991Z,99.45
2022-12-29T00:59:10.551Z,99.55
2022-12-29T01:01:40.528Z,99.09
2022-12-29T01:04:10.112Z,99.40
2022-12-29T01:06:40.680Z,99.46
2022-12-29T01:09:27.383Z,99.39
2022-12-29T01:11:57.283Z,99.41
2022-12-29T01:14:26.192Z,99.69
2022-12-29T01:16:55.483Z,99.39
2022-12-29T01:19:24.935Z,99.44
2022-12-29T01:21:53.625Z,99.01
2022-12-29T01:24:23.160Z,99.35
2022-12-29T01:26:52.133Z,99.05
2022-12-29T01:29:21.789Z,99.04
2022-12-29T01:31:50.826Z,98.84
2022-12-29T01:34:19.670Z,98.76
2022-12-29T01:36:47.977Z,98.90
2022-12-29T01:39:16.299Z,98.67
2022-12-29T01:41:44.624Z,98.40
2022-12-29T01:45:03.852Z,97.95
2022-12-29T01:47:38.888Z,98.29
2022-12-29T01:50:12.621Z,97.46
2022-12-29T01:52:46.279Z,97.79
2022-12-29T01:55:15.201Z,97.67
2022-12-29T01:57:48.688Z,97.81
2022-12-29T02:00:20.359Z,97.53
2022-12-29T02:02:53.935Z,97.42
2022-12-29T02:05:29.991Z,97.19
2022-12-29T02:07:58.849Z,97.42
2022-12-29T02:10:30.531Z,97.04
2022-12-29T02:12:59.043Z,97.23
2022-12-29T02:15:41.360Z,96.94
2022-12-29T02:18:25.546Z,97.04
2022-12-29T02:21:31.875Z,96.78
2022-12-29T02:24:47.246Z,96.74
2022-12-29T02:28:01.385Z,96.71
2022-12-29T02:30:50.065Z,96.49
2022-12-29T02:33:40.493Z,96.40
2022-12-29T02:36:20.482Z,96.50
2022-12-29T02:39:02.176Z,96.01
2022-12-29T02:41:35.500Z,96.13
2022-12-29T02:44:12.705Z,95.42
2022-12-29T02:46:50.217Z,96.39
2022-12-29T02:49:24.737Z,96.23
2022-12-29T02:52:00.356Z,96.54
2022-12-29T02:54:44.802Z,96.48
2022-12-29T02:57:30.353Z,97.26
2022-12-29T03:00:03.784Z,97.27
2022-12-29T03:03:14.647Z,97.39
2022-12-29T03:06:02.340Z,97.49
2022-12-29T03:08:39.463Z,97.46
2022-12-29T03:11:30.547Z,97.47
2022-12-29T03:14:22.060Z,97.71
2022-12-29T03:16:56.409Z,97.56
2022-12-29T03:19:28.834Z,97.72
2022-12-29T03:22:17.627Z,97.64
2022-12-29T03:24:49.957Z,97.73
2022-12-29T03:27:22.363Z,97.62
2022-12-29T03:29:56.448Z,97.72
2022-12-29T03:32:29.633Z,97.72
2022-12-29T03:35:01.194Z,97.83
2022-12-29T03:37:37.859Z,97.76
2022-12-29T03:40:07.737Z,97.83
2022-12-29T03:42:38.934Z,97.57
2022-12-29T03:45:10.183Z,97.76
2022-12-29T03:47:38.407Z,97.68
2022-12-29T03:50:09.739Z,97.46
2022-12-29T03:52:37.956Z,97.35
2022-12-29T03:55:07.673Z,96.93
2022-12-29T03:57:36.038Z,97.37
2022-12-29T04:00:05.765Z,96.63
2022-12-29T04:02:34.117Z,96.41
2022-12-29T04:05:02.753Z,96.06
2022-12-29T04:07:32.468Z,95.76
2022-12-29T04:10:00.717Z,95.62
2022-12-29T04:12:29.114Z,95.46
2022-12-29T04:14:57.461Z,95.10
2022-12-29T04:17:25.748Z,95.10
2022-12-29T04:20:14.057Z,94.61
2022-12-29T04:22:44.028Z,94.64
2022-12-29T04:25:12.427Z,94.75
2022-12-29T04:27:40.845Z,94.52
2022-12-29T04:30:12.267Z,94.38
2022-12-29T04:32:40.711Z,94.24
2022-12-29T04:35:10.202Z,94.32
2022-12-29T04:37:38.906Z,93.96
2022-12-29T04:40:11.033Z,93.63
2022-12-29T04:42:39.337Z,93.31
2022-12-29T04:45:09.591Z,93.30
2022-12-29T04:47:37.905Z,93.08
2022-12-29T04:50:07.638Z,92.98
2022-12-29T04:52:36.085Z,92.85
2022-12-29T04:55:05.124Z,92.65
2022-12-29T04:57:34.818Z,92.30
2022-12-29T05:00:03.892Z,92.28
2022-12-29T05:02:32.314Z,92.26
2022-12-29T05:05:00.736Z,91.92
2022-12-29T05:07:29.006Z,92.02
2022-12-29T05:09:57.345Z,91.70
2022-12-29T05:12:25.631Z,91.97
2022-12-29T05:14:55.226Z,92.01
2022-12-29T05:17:23.510Z,91.85
2022-12-29T05:19:51.861Z,91.96
2022-12-29T05:22:20.109Z,91.98
2022-12-29T05:24:48.964Z,92.04
2022-12-29T05:27:17.447Z,91.78
2022-12-29T05:29:45.773Z,92.01
2022-12-29T05:32:16.554Z,92.37
2022-12-29T05:34:47.300Z,92.22
2022-12-29T05:37:15.573Z,91.95
2022-12-29T05:39:43.960Z,91.99
2022-12-29T05:42:12.768Z,91.78
2022-12-29T05:44:41.085Z,92.00
2022-12-29T05:47:09.440Z,92.31
2022-12-29T05:49:39.138Z,92.18
2022-12-29T05:52:07.504Z,91.97
2022-12-29T05:54:35.714Z,91.73
2022-12-29T05:57:04.002Z,91.91
2022-12-29T05:59:32.316Z,91.97
2022-12-29T06:02:00.792Z,91.91
2022-12-29T06:04:29.253Z,91.85
2022-12-29T06:06:58.911Z,91.54
2022-12-29T06:09:27.256Z,91.76
2022-12-29T06:11:55.936Z,91.68
2022-12-29T06:14:24.263Z,91.32
2022-12-29T06:16:52.843Z,90.90
2022-12-29T06:19:21.389Z,91.33
2022-12-29T06:21:49.756Z,91.39
2022-12-29T06:24:19.418Z,91.64
2022-12-29T06:26:47.773Z,91.03
2022-12-29T06:29:18.129Z,91.23
2022-12-29T06:31:47.176Z,91.00
2022-12-29T06:34:16.059Z,90.78
2022-12-29T06:36:44.722Z,90.23
2022-12-29T06:39:13.114Z,90.52
2022-12-29T06:41:43.703Z,90.04
2022-12-29T06:44:12.264Z,89.63
2022-12-29T06:46:40.484Z,89.66
2022-12-29T06:49:08.928Z,89.44
2022-12-29T06:51:37.229Z,89.25
2022-12-29T06:54:05.899Z,89.23
2022-12-29T06:56:34.460Z,89.33
2022-12-29T06:59:04.354Z,88.82
2022-12-29T07:01:32.981Z,88.75
2022-12-29T07:04:01.507Z,89.08
2022-12-29T07:06:29.921Z,88.84
2022-12-29T07:08:58.656Z,89.17
2022-12-29T07:11:27.135Z,88.78
2022-12-29T07:13:55.441Z,88.84
2022-12-29T07:16:25.239Z,89.12
2022-12-29T07:18:54.114Z,88.54
2022-12-29T07:21:22.416Z,88.60
2022-12-29T07:23:50.879Z,88.63
2022-12-29T07:26:19.770Z,88.44
2022-12-29T07:28:48.100Z,87.94
2022-12-29T07:31:19.509Z,88.10
2022-12-29T07:33:50.071Z,87.46
2022-12-29T07:36:18.780Z,87.49
2022-12-29T07:38:47.124Z,87.59
2022-12-29T07:41:15.509Z,87.34
2022-12-29T07:43:43.841Z,87.35
2022-12-29T07:46:54.218Z,87.03
2022-12-29T07:49:02.436Z,86.66
2022-12-29T07:51:30.785Z,87.37
2022-12-29T07:54:01.252Z,86.68
2022-12-29T07:56:29.837Z,86.82
2022-12-29T07:58:58.294Z,86.13
2022-12-29T08:01:26.744Z,86.28
2022-12-29T08:03:57.534Z,86.38
2022-12-29T08:06:27.659Z,86.26
2022-12-29T08:08:57.292Z,85.98
2022-12-29T08:11:26.582Z,85.96
2022-12-29T08:13:55.011Z,85.48
2022-12-29T08:16:23.351Z,85.50
2022-12-29T08:18:51.893Z,85.35
2022-12-29T08:21:20.268Z,85.46
2022-12-29T08:23:50.476Z,85.15
2022-12-29T08:26:18.727Z,85.46
2022-12-29T08:28:47.443Z,85.04
2022-12-29T08:31:15.930Z,85.02
2022-12-29T08:33:44.463Z,84.44
2022-12-29T08:36:12.767Z,84.66
2022-12-29T08:38:41.359Z,84.16
2022-12-29T08:41:10.989Z,84.26
2022-12-29T08:43:39.364Z,84.02
2022-12-29T08:46:08.228Z,83.81
2022-12-29T08:48:36.537Z,83.60
2022-12-29T08:51:05.493Z,83.77
2022-12-29T08:53:33.956Z,83.62
2022-12-29T08:56:05.466Z,83.62
2022-12-29T08:58:35.698Z,83.24
2022-12-29T09:01:04.220Z,83.44
2022-12-29T09:04:04.260Z,83.13
2022-12-29T09:06:20.818Z,83.22
2022-12-29T09:08:49.187Z,82.92
2022-12-29T09:11:20.807Z,83.07
2022-12-29T09:13:50.538Z,83.41
2022-12-29T09:16:19.724Z,83.02
2022-12-29T09:18:48.418Z,83.24
2022-12-29T09:21:16.897Z,83.21
2022-12-29T09:23:45.223Z,83.88
2022-12-29T09:26:13.563Z,83.32
2022-12-29T09:28:41.859Z,83.17
2022-12-29T09:31:11.723Z,84.00
2022-12-29T09:33:40.101Z,84.40
2022-12-29T09:36:10.487Z,84.62
2022-12-29T09:38:38.793Z,85.36
2022-12-29T09:41:15.971Z,86.05
2022-12-29T09:44:09.430Z,86.50
2022-12-29T09:46:43.221Z,86.40
2022-12-29T09:49:26.714Z,86.66
2022-12-29T09:51:57.852Z,86.95
2022-12-29T09:54:41.435Z,87.84
2022-12-29T09:57:19.209Z,87.25
2022-12-29T09:59:48.854Z,86.74
2022-12-29T10:02:35.289Z,86.01
2022-12-29T10:05:04.564Z,86.45
2022-12-29T10:07:47.918Z,86.46
2022-12-29T10:10:30.441Z,86.75
2022-12-29T10:13:27.175Z,87.35
2022-12-29T10:16:05.274Z,87.57
2022-12-29T10:19:29.687Z,87.97
2022-12-29T10:22:18.162Z,88.22
2022-12-29T10:24:51.643Z,87.72
2022-12-29T10:27:21.057Z,88.61
2022-12-29T10:29:54.633Z,88.59
2022-12-29T10:32:36.001Z,88.30
2022-12-29T10:35:13.440Z,89.22
2022-12-29T10:37:51.695Z,89.49
2022-12-29T10:40:26.762Z,89.21
2022-12-29T10:42:59.065Z,89.64
2022-12-29T10:45:31.821Z,89.90
2022-12-29T10:48:04.739Z,90.06
2022-12-29T10:50:35.103Z,90.46
2022-12-29T10:53:07.342Z,90.85
2022-12-29T10:55:38.787Z,90.85
2022-12-29T10:58:10.873Z,90.69
2022-12-29T11:00:39.209Z,90.92
2022-12-29T11:03:57.000Z,91.03
2022-12-29T11:06:28.746Z,91.49
2022-12-29T11:09:00.848Z,91.41
2022-12-29T11:11:35.852Z,92.22
2022-12-29T11:14:16.510Z,92.28
2022-12-29T11:16:46.155Z,91.80
2022-12-29T11:19:25.683Z,91.79
2022-12-29T11:21:55.585Z,92.22
2022-12-29T11:24:26.857Z,91.78
2022-12-29T11:26:58.638Z,92.61
2022-12-29T11:29:30.679Z,92.84
2022-12-29T11:32:01.160Z,92.25
2022-12-29T11:34:35.004Z,92.73
2022-12-29T11:37:08.533Z,92.91
2022-12-29T11:39:42.658Z,92.95
2022-12-29T11:42:19.285Z,93.13
2022-12-29T11:44:49.955Z,93.27
2022-12-29T11:47:29.291Z,93.33
2022-12-29T11:50:01.210Z,92.72
2022-12-29T11:52:37.066Z,93.29
2022-12-29T11:55:19.031Z,92.91
2022-12-29T11:57:48.157Z,92.60
2022-12-29T12:00:20.788Z,92.59
2022-12-29T12:02:58.685Z,93.04
2022-12-29T12:05:38.920Z,93.19
2022-12-29T12:08:21.190Z,93.30
2022-12-29T12:10:58.868Z,92.61
2022-12-29T12:13:34.061Z,93.26
2022-12-29T12:16:08.835Z,92.94
2022-12-29T12:18:45.692Z,92.53
2022-12-29T12:21:24.689Z,93.11
2022-12-29T12:24:24.398Z,92.90
2022-12-29T12:27:00.917Z,92.85
2022-12-29T12:29:40.441Z,92.63
2022-12-29T12:32:17.465Z,92.53
2022-12-29T12:34:47.834Z,93.01
2022-12-29T12:37:43.875Z,92.41
2022-12-29T12:40:44.082Z,92.37
2022-12-29T12:43:37.933Z,92.20
2022-12-29T12:46:34.200Z,91.29
2022-12-29T12:49:22.467Z,90.66
2022-12-29T12:52:05.234Z,89.92
2022-12-29T12:55:03.020Z,87.76
2022-12-29T12:57:50.195Z,87.53
2022-12-29T13:00:20.804Z,87.25
2022-12-29T13:03:07.468Z,87.13
2022-12-29T13:05:59.614Z,86.14
2022-12-29T13:08:48.368Z,85.50
2022-12-29T13:11:27.550Z,85.49
2022-12-29T13:14:22.282Z,84.78
2022-12-29T13:16:57.759Z,84.50
2022-12-29T13:19:33.935Z,84.32
2022-12-29T13:22:12.331Z,83.38
2022-12-29T13:24:59.616Z,83.23
2022-12-29T13:27:37.958Z,83.46
2022-12-29T13:30:13.001Z,82.80
2022-12-29T13:32:57.769Z,82.96
2022-12-29T13:35:54.794Z,83.08
2022-12-29T13:38:28.398Z,82.72
2022-12-29T13:41:01.906Z,82.96
2022-12-29T13:43:33.278Z,82.64
2022-12-29T13:46:09.737Z,83.07
2022-12-29T13:48:42.866Z,83.26
2022-12-29T13:51:15.313Z,82.91
2022-12-29T13:54:03.963Z,83.07
2022-12-29T13:56:41.298Z,82.96
2022-12-29T13:59:20.888Z,83.12
2022-12-29T14:01:57.695Z,82.64
2022-12-29T14:04:36.109Z,82.26
2022-12-29T14:10:01.213Z,81.48
2022-12-29T14:12:48.734Z,81.55
2022-12-29T14:15:42.961Z,81.53
2022-12-29T14:18:47.481Z,81.96
2022-12-29T14:21:38.159Z,81.97
2022-12-29T14:24:48.201Z,81.97
2022-12-29T14:30:58.669Z,82.20
2022-12-29T14:33:49.116Z,82.19
2022-12-29T14:36:45.365Z,82.38
2022-12-29T14:39:42.511Z,82.50
2022-12-29T14:45:43.213Z,82.71
2022-12-29T14:49:02.149Z,83.28
2022-12-29T14:51:52.237Z,82.83
2022-12-29T14:54:57.169Z,83.30
2022-12-29T14:57:55.853Z,83.42
2022-12-29T15:00:33.345Z,83.54
2022-12-29T15:03:18.119Z,83.16
2022-12-29T15:08:56.947Z,83.53
2022-12-29T15:11:54.006Z,83.45
2022-12-29T15:15:02.984Z,83.25
2022-12-29T15:17:51.585Z,83.69
2022-12-29T15:20:49.653Z,84.05
2022-12-29T15:23:32.675Z,83.76
2022-12-29T15:26:11.485Z,84.19
2022-12-29T15:28:50.004Z,84.56
2022-12-29T15:31:32.788Z,84.75
2022-12-29T15:34:34.859Z,84.67
2022-12-29T15:37:33.238Z,84.11
2022-12-29T15:40:36.151Z,84.64
2022-12-29T15:43:52.441Z,84.33
2022-12-29T15:52:42.448Z,84.54
2022-12-29T15:55:39.073Z,85.07
2022-12-29T15:58:25.411Z,85.08
2022-12-29T16:01:04.362Z,84.38
2022-12-29T16:03:40.525Z,84.42
2022-12-29T16:06:31.801Z,85.16
2022-12-29T16:09:22.468Z,84.57
2022-12-29T16:12:09.758Z,85.62
2022-12-29T16:18:04.524Z,85.22
2022-12-29T16:20:53.187Z,85.65
2022-12-29T16:26:36.768Z,85.33
2022-12-29T16:29:30.691Z,85.56
2022-12-29T16:34:56.392Z,85.72
2022-12-29T16:38:03.748Z,86.16
2022-12-29T16:40:56.326Z,85.93
2022-12-29T16:46:39.587Z,85.46
2022-12-29T16:49:24.659Z,85.53
2022-12-29T16:51:57.086Z,86.06
2022-12-29T16:57:54.559Z,86.51
2022-12-29T17:03:38.619Z,85.78
2022-12-29T17:06:20.928Z,86.47
2022-12-29T17:08:54.209Z,86.58
2022-12-29T17:12:10.449Z,86.57
2022-12-29T17:14:57.055Z,86.21
2022-12-29T17:17:34.950Z,86.55
2022-12-29T17:20:20.712Z,87.86
2022-12-29T17:22:53.090Z,87.87
2022-12-29T17:28:23.819Z,88.72
2022-12-29T17:31:03.514Z,88.36
2022-12-29T17:33:39.243Z,89.20
2022-12-29T17:36:30.954Z,88.05
2022-12-29T17:39:26.975Z,87.46
2022-12-29T17:41:59.787Z,88.15
2022-12-29T17:44:45.019Z,88.46
2022-12-29T17:47:18.426Z,88.13
2022-12-29T17:49:48.262Z,87.74
2022-12-29T17:52:20.361Z,88.16
2022-12-29T17:55:05.052Z,88.05
2022-12-29T17:57:37.981Z,88.34
2022-12-29T18:00:19.009Z,88.51
2022-12-29T18:02:48.383Z,87.98
2022-12-29T18:05:23.569Z,87.94
2022-12-29T18:08:02.659Z,87.94
2022-12-29T18:10:33.013Z,88.50
2022-12-29T18:13:13.430Z,88.46
2022-12-29T18:15:45.763Z,88.06
2022-12-29T18:18:20.083Z,88.10
2022-12-29T18:21:06.746Z,88.13
2022-12-29T18:27:37.180Z,88.13
2022-12-29T18:30:11.510Z,89.09
2022-12-29T18:32:57.096Z,89.07
2022-12-29T18:36:06.388Z,88.96
2022-12-29T18:38:37.047Z,89.18
2022-12-29T18:45:06.944Z,89.52
2022-12-29T18:51:17.033Z,89.67
2022-12-29T18:54:57.243Z,90.23
2022-12-29T18:58:09.970Z,90.75
2022-12-29T19:00:50.278Z,90.47
2022-12-29T19:03:55.402Z,90.44
2022-12-29T19:06:29.962Z,90.50
2022-12-29T19:08:58.306Z,90.15
2022-12-29T19:11:26.622Z,90.30
2022-12-29T19:13:56.253Z,90.11
2022-12-29T19:16:25.082Z,89.96
2022-12-29T19:19:08.222Z,90.26
2022-12-29T19:21:38.570Z,90.29
2022-12-29T19:24:07.606Z,90.67
2022-12-29T19:26:38.706Z,90.24
2022-12-29T19:29:13.650Z,90.96
2022-12-29T19:31:42.184Z,90.02
2022-12-29T19:34:13.421Z,90.15
2022-12-29T19:36:41.814Z,90.39
2022-12-29T19:39:10.528Z,91.12
2022-12-29T19:41:39.040Z,91.21
2022-12-29T19:44:09.043Z,91.20
2022-12-29T19:46:37.602Z,91.20
2022-12-29T19:49:05.932Z,91.32
2022-12-29T19:51:35.581Z,90.98
2022-12-29T19:54:03.957Z,91.43
2022-12-29T19:56:32.788Z,92.09
2022-12-29T19:59:01.183Z,91.47
2022-12-29T20:01:30.978Z,91.28
2022-12-29T20:04:00.515Z,90.68
2022-12-29T20:06:28.927Z,90.16
2022-12-29T20:08:57.217Z,91.01
2022-12-29T20:11:26.114Z,89.85
2022-12-29T20:13:55.070Z,89.55
2022-12-29T20:16:24.958Z,90.28
2022-12-29T20:18:56.469Z,90.58
2022-12-29T20:21:26.242Z,90.59
2022-12-29T20:23:56.377Z,89.88
2022-12-29T20:26:28.060Z,90.88
2022-12-29T20:28:57.753Z,90.46
2022-12-29T20:31:28.764Z,91.29
2022-12-29T20:33:58.789Z,90.99
2022-12-29T20:36:29.613Z,91.41
2022-12-29T20:39:01.849Z,90.62
2022-12-29T20:41:30.992Z,89.80
2022-12-29T20:43:59.719Z,90.81
2022-12-29T20:46:35.328Z,89.83
2022-12-29T20:49:10.779Z,90.62
2022-12-29T20:52:04.973Z,90.74
2022-12-29T20:54:27.839Z,91.60
2022-12-29T20:56:56.492Z,91.09
2022-12-29T20:59:28.775Z,90.49
2022-12-29T21:01:58.016Z,90.69
2022-12-29T21:04:38.402Z,90.80
2022-12-29T21:07:20.117Z,91.50
2022-12-29T21:09:48.856Z,90.70
2022-12-29T21:12:17.189Z,91.57
2022-12-29T21:14:46.097Z,90.59
2022-12-29T21:17:14.517Z,90.89
2022-12-29T21:19:44.154Z,90.34
2022-12-29T21:22:12.437Z,91.00
2022-12-29T21:24:40.840Z,90.56
2022-12-29T21:27:09.173Z,89.83
2022-12-29T21:29:37.451Z,90.75
2022-12-29T21:32:07.069Z,90.04
2022-12-29T21:34:36.258Z,91.13
2022-12-29T21:37:05.941Z,91.48
2022-12-29T21:39:34.270Z,90.23
2022-12-29T21:42:02.761Z,91.34
2022-12-29T21:44:48.756Z,90.57
2022-12-29T21:47:17.105Z,90.82
2022-12-29T21:49:45.438Z,90.78
2022-12-29T21:52:14.149Z,90.32
2022-12-29T21:54:59.780Z,90.29
2022-12-29T21:57:45.573Z,90.00
2022-12-29T22:00:29.083Z,89.53
2022-12-29T22:03:22.649Z,90.02
2022-12-29T22:06:10.033Z,90.20
2022-12-29T22:08:57.940Z,89.76
2022-12-29T22:11:43.924Z,89.37
2022-12-29T22:14:12.461Z,90.36
2022-12-29T22:16:41.120Z,89.73
2022-12-29T22:19:10.787Z,90.40
2022-12-29T22:21:39.119Z,90.20
2022-12-29T22:24:10.070Z,90.10
2022-12-29T22:26:38.415Z,89.93
2022-12-29T22:29:06.727Z,90.44
2022-12-29T22:31:35.103Z,89.92
2022-12-29T22:34:05.270Z,90.18
2022-12-29T22:36:34.022Z,89.30
2022-12-29T22:39:02.591Z,89.96
2022-12-29T22:41:32.274Z,89.51
2022-12-29T22:44:00.565Z,89.80
2022-12-29T22:46:29.016Z,89.74
2022-12-29T22:48:58.629Z,90.44
2022-12-29T22:51:27.390Z,89.70
2022-12-29T22:53:55.707Z,89.90
2022-12-29T22:56:24.074Z,90.58
2022-12-29T22:58:53.699Z,89.66
2022-12-29T23:01:23.240Z,90.41
2022-12-29T23:03:52.004Z,89.60
2022-12-29T23:06:20.420Z,89.23
2022-12-29T23:08:48.795Z,90.01
2022-12-29T23:11:17.316Z,89.49
2022-12-29T23:13:46.229Z,89.57
2022-12-29T23:16:17.358Z,89.75
2022-12-29T23:18:46.842Z,89.65
2022-12-29T23:21:16.278Z,90.17
2022-12-29T23:23:57.548Z,89.82
2022-12-29T23:26:28.774Z,89.05
2022-12-29T23:29:00.497Z,89.26
2022-12-29T23:31:32.145Z,89.74
2022-12-29T23:34:01.535Z,90.55
2022-12-29T23:36:30.575Z,90.61
2022-12-29T23:38:59.248Z,89.61
2022-12-29T23:41:28.411Z,90.84
2022-12-29T23:43:56.969Z,90.52
2022-12-29T23:46:27.604Z,89.59
2022-12-29T23:48:57.908Z,89.69
2022-12-29T23:51:26.328Z,90.48
2022-12-29T23:53:54.649Z,90.68
2022-12-29T23:56:24.522Z,90.20
2022-12-29T23:58:53.479Z,90.23
